sensor_id;sensor_type;location;lat;lon;timestamp;temperature;humidity
75685;HTU21D;64298;46.050;38.164;2023-01-26T00:01:38;-0.77;72.11
75685;HTU21D;64298;46.050;38.164;2023-01-26T00:04:22;-0.79;72.09
75685;HTU21D;64298;46.050;38.164;2023-01-26T00:06:48;-0.80;72.10
75685;HTU21D;64298;46.050;38.164;2023-01-26T00:09:14;-0.81;72.15
75685;HTU21D;64298;46.050;38.164;2023-01-26T00:11:40;-0.81;72.09
75685;HTU21D;64298;46.050;38.164;2023-01-26T00:14:06;-0.83;72.00
75685;HTU21D;64298;46.050;38.164;2023-01-26T00:16:32;-0.87;72.07
75685;HTU21D;64298;46.050;38.164;2023-01-26T00:18:58;-0.87;72.08
75685;HTU21D;64298;46.050;38.164;2023-01-26T00:21:24;-0.87;72.12
75685;HTU21D;64298;46.050;38.164;2023-01-26T00:23:51;-0.88;72.12
75685;HTU21D;64298;46.050;38.164;2023-01-26T00:26:19;-0.90;72.20
75685;HTU21D;64298;46.050;38.164;2023-01-26T00:28:46;-0.89;72.29
75685;HTU21D;64298;46.050;38.164;2023-01-26T00:31:30;-0.88;72.34
75685;HTU21D;64298;46.050;38.164;2023-01-26T00:33:58;-0.88;72.39
75685;HTU21D;64298;46.050;38.164;2023-01-26T00:36:24;-0.88;72.49
75685;HTU21D;64298;46.050;38.164;2023-01-26T00:38:50;-0.88;72.52
75685;HTU21D;64298;46.050;38.164;2023-01-26T00:41:16;-0.87;72.54
75685;HTU21D;64298;46.050;38.164;2023-01-26T00:44:00;-0.86;72.61
75685;HTU21D;64298;46.050;38.164;2023-01-26T00:46:26;-0.86;72.68
75685;HTU21D;64298;46.050;38.164;2023-01-26T00:48:52;-0.86;72.78
75685;HTU21D;64298;46.050;38.164;2023-01-26T00:51:18;-0.85;72.87
75685;HTU21D;64298;46.050;38.164;2023-01-26T00:53:44;-0.85;72.99
75685;HTU21D;64298;46.050;38.164;2023-01-26T00:56:11;-0.84;73.03
75685;HTU21D;64298;46.050;38.164;2023-01-26T00:58:39;-0.85;73.12
75685;HTU21D;64298;46.050;38.164;2023-01-26T01:01:05;-0.86;73.22
75685;HTU21D;64298;46.050;38.164;2023-01-26T01:03:31;-0.87;73.28
75685;HTU21D;64298;46.050;38.164;2023-01-26T01:05:56;-0.87;73.41
75685;HTU21D;64298;46.050;38.164;2023-01-26T01:08:22;-0.88;73.44
75685;HTU21D;64298;46.050;38.164;2023-01-26T01:10:48;-0.89;73.52
75685;HTU21D;64298;46.050;38.164;2023-01-26T01:13:14;-0.93;73.57
75685;HTU21D;64298;46.050;38.164;2023-01-26T01:15:40;-0.91;73.60
75685;HTU21D;64298;46.050;38.164;2023-01-26T01:18:06;-0.89;73.60
75685;HTU21D;64298;46.050;38.164;2023-01-26T01:20:32;-0.93;73.65
75685;HTU21D;64298;46.050;38.164;2023-01-26T01:22:58;-0.95;73.73
75685;HTU21D;64298;46.050;38.164;2023-01-26T01:25:26;-0.97;73.74
75685;HTU21D;64298;46.050;38.164;2023-01-26T01:27:52;-0.97;73.77
75685;HTU21D;64298;46.050;38.164;2023-01-26T01:30:17;-0.98;73.79
75685;HTU21D;64298;46.050;38.164;2023-01-26T01:32:43;-0.99;73.79
75685;HTU21D;64298;46.050;38.164;2023-01-26T01:35:10;-0.99;73.80
75685;HTU21D;64298;46.050;38.164;2023-01-26T01:37:36;-0.98;73.79
75685;HTU21D;64298;46.050;38.164;2023-01-26T01:40:02;-0.98;73.76
75685;HTU21D;64298;46.050;38.164;2023-01-26T01:42:28;-0.99;73.79
75685;HTU21D;64298;46.050;38.164;2023-01-26T01:47:56;-1.00;73.80
75685;HTU21D;64298;46.050;38.164;2023-01-26T01:50:25;-1.01;73.82
75685;HTU21D;64298;46.050;38.164;2023-01-26T01:52:53;-1.02;73.87
75685;HTU21D;64298;46.050;38.164;2023-01-26T01:55:20;-1.01;73.85
75685;HTU21D;64298;46.050;38.164;2023-01-26T01:57:51;-0.98;73.79
75685;HTU21D;64298;46.050;38.164;2023-01-26T02:00:21;-0.99;73.79
75685;HTU21D;64298;46.050;38.164;2023-01-26T02:06:07;-1.03;73.76
75685;HTU21D;64298;46.050;38.164;2023-01-26T02:08:37;-1.05;73.85
75685;HTU21D;64298;46.050;38.164;2023-01-26T02:11:10;-1.10;73.91
75685;HTU21D;64298;46.050;38.164;2023-01-26T02:13:38;-1.13;73.93
75685;HTU21D;64298;46.050;38.164;2023-01-26T02:16:05;-1.18;74.00
75685;HTU21D;64298;46.050;38.164;2023-01-26T02:18:32;-1.20;74.09
75685;HTU21D;64298;46.050;38.164;2023-01-26T02:21:00;-1.24;74.12
75685;HTU21D;64298;46.050;38.164;2023-01-26T02:23:43;-1.25;74.20
75685;HTU21D;64298;46.050;38.164;2023-01-26T02:26:12;-1.27;74.22
75685;HTU21D;64298;46.050;38.164;2023-01-26T02:28:40;-1.27;74.20
75685;HTU21D;64298;46.050;38.164;2023-01-26T02:31:07;-1.28;74.20
75685;HTU21D;64298;46.050;38.164;2023-01-26T02:33:34;-1.26;74.20
75685;HTU21D;64298;46.050;38.164;2023-01-26T02:36:03;-1.26;74.20
75685;HTU21D;64298;46.050;38.164;2023-01-26T02:38:38;-1.28;74.22
75685;HTU21D;64298;46.050;38.164;2023-01-26T02:41:07;-1.29;74.25
75685;HTU21D;64298;46.050;38.164;2023-01-26T02:43:34;-1.32;74.32
75685;HTU21D;64298;46.050;38.164;2023-01-26T02:46:03;-1.34;74.38
75685;HTU21D;64298;46.050;38.164;2023-01-26T02:48:29;-1.38;74.47
75685;HTU21D;64298;46.050;38.164;2023-01-26T02:51:13;-1.40;74.49
75685;HTU21D;64298;46.050;38.164;2023-01-26T02:53:39;-1.42;74.51
75685;HTU21D;64298;46.050;38.164;2023-01-26T02:56:06;-1.43;74.54
75685;HTU21D;64298;46.050;38.164;2023-01-26T02:58:32;-1.44;74.54
75685;HTU21D;64298;46.050;38.164;2023-01-26T03:00:58;-1.44;74.54
75685;HTU21D;64298;46.050;38.164;2023-01-26T03:03:28;-1.45;74.55
75685;HTU21D;64298;46.050;38.164;2023-01-26T03:06:08;-1.46;74.51
75685;HTU21D;64298;46.050;38.164;2023-01-26T03:08:35;-1.46;74.54
75685;HTU21D;64298;46.050;38.164;2023-01-26T03:11:02;-1.47;74.50
75685;HTU21D;64298;46.050;38.164;2023-01-26T03:13:28;-1.48;74.51
75685;HTU21D;64298;46.050;38.164;2023-01-26T03:15:57;-1.46;74.48
75685;HTU21D;64298;46.050;38.164;2023-01-26T03:18:27;-1.46;74.45
75685;HTU21D;64298;46.050;38.164;2023-01-26T03:21:14;-1.45;74.46
75685;HTU21D;64298;46.050;38.164;2023-01-26T03:24:00;-1.47;74.41
75685;HTU21D;64298;46.050;38.164;2023-01-26T03:26:45;-1.50;74.42
75685;HTU21D;64298;46.050;38.164;2023-01-26T03:29:31;-1.54;74.47
75685;HTU21D;64298;46.050;38.164;2023-01-26T03:31:59;-1.56;74.51
75685;HTU21D;64298;46.050;38.164;2023-01-26T03:34:26;-1.59;74.56
75685;HTU21D;64298;46.050;38.164;2023-01-26T03:36:52;-1.58;74.54
75685;HTU21D;64298;46.050;38.164;2023-01-26T03:39:19;-1.61;74.53
75685;HTU21D;64298;46.050;38.164;2023-01-26T03:42:05;-1.65;74.60
75685;HTU21D;64298;46.050;38.164;2023-01-26T03:44:49;-1.68;74.60
75685;HTU21D;64298;46.050;38.164;2023-01-26T03:47:36;-1.71;74.70
75685;HTU21D;64298;46.050;38.164;2023-01-26T03:50:21;-1.74;74.71
75685;HTU21D;64298;46.050;38.164;2023-01-26T03:53:16;-1.79;74.79
75685;HTU21D;64298;46.050;38.164;2023-01-26T03:56:01;-1.83;74.83
75685;HTU21D;64298;46.050;38.164;2023-01-26T03:58:44;-1.85;74.92
75685;HTU21D;64298;46.050;38.164;2023-01-26T04:01:11;-1.88;74.97
75685;HTU21D;64298;46.050;38.164;2023-01-26T04:03:43;-1.91;74.97
75685;HTU21D;64298;46.050;38.164;2023-01-26T04:06:27;-1.95;75.07
75685;HTU21D;64298;46.050;38.164;2023-01-26T04:09:12;-1.98;75.11
75685;HTU21D;64298;46.050;38.164;2023-01-26T04:11:39;-1.95;75.13
75685;HTU21D;64298;46.050;38.164;2023-01-26T04:14:24;-1.98;75.15
75685;HTU21D;64298;46.050;38.164;2023-01-26T04:17:08;-2.00;75.15
75685;HTU21D;64298;46.050;38.164;2023-01-26T04:19:53;-2.02;75.20
75685;HTU21D;64298;46.050;38.164;2023-01-26T04:22:41;-2.06;75.28
75685;HTU21D;64298;46.050;38.164;2023-01-26T04:25:14;-2.06;75.28
75685;HTU21D;64298;46.050;38.164;2023-01-26T04:27:41;-2.04;75.29
75685;HTU21D;64298;46.050;38.164;2023-01-26T04:30:10;-2.06;75.25
75685;HTU21D;64298;46.050;38.164;2023-01-26T04:32:37;-2.05;75.22
75685;HTU21D;64298;46.050;38.164;2023-01-26T04:35:04;-2.06;75.24
75685;HTU21D;64298;46.050;38.164;2023-01-26T04:37:32;-2.06;75.25
75685;HTU21D;64298;46.050;38.164;2023-01-26T04:39:59;-2.09;75.28
75685;HTU21D;64298;46.050;38.164;2023-01-26T04:42:26;-2.12;75.25
75685;HTU21D;64298;46.050;38.164;2023-01-26T04:44:54;-2.14;75.34
75685;HTU21D;64298;46.050;38.164;2023-01-26T04:47:21;-2.15;75.34
75685;HTU21D;64298;46.050;38.164;2023-01-26T04:49:47;-2.16;75.41
75685;HTU21D;64298;46.050;38.164;2023-01-26T04:52:17;-2.14;75.31
75685;HTU21D;64298;46.050;38.164;2023-01-26T04:54:43;-2.17;75.35
75685;HTU21D;64298;46.050;38.164;2023-01-26T04:57:09;-2.20;75.37
75685;HTU21D;64298;46.050;38.164;2023-01-26T04:59:37;-2.19;75.38
75685;HTU21D;64298;46.050;38.164;2023-01-26T05:02:03;-2.23;75.38
75685;HTU21D;64298;46.050;38.164;2023-01-26T05:04:30;-2.23;75.44
75685;HTU21D;64298;46.050;38.164;2023-01-26T05:06:56;-2.24;75.44
75685;HTU21D;64298;46.050;38.164;2023-01-26T05:09:26;-2.23;75.41
75685;HTU21D;64298;46.050;38.164;2023-01-26T05:12:13;-2.23;75.34
75685;HTU21D;64298;46.050;38.164;2023-01-26T05:15:15;-2.23;75.33
75685;HTU21D;64298;46.050;38.164;2023-01-26T05:18:05;-2.26;75.38
75685;HTU21D;64298;46.050;38.164;2023-01-26T05:20:37;-2.24;75.38
75685;HTU21D;64298;46.050;38.164;2023-01-26T05:23:24;-2.22;75.31
75685;HTU21D;64298;46.050;38.164;2023-01-26T05:26:09;-2.21;75.27
75685;HTU21D;64298;46.050;38.164;2023-01-26T05:28:55;-2.19;75.25
75685;HTU21D;64298;46.050;38.164;2023-01-26T05:31:21;-2.20;75.22
75685;HTU21D;64298;46.050;38.164;2023-01-26T05:33:47;-2.19;75.15
75685;HTU21D;64298;46.050;38.164;2023-01-26T05:36:19;-2.15;75.14
75685;HTU21D;64298;46.050;38.164;2023-01-26T05:38:45;-2.14;75.10
75685;HTU21D;64298;46.050;38.164;2023-01-26T05:41:12;-2.09;75.06
75685;HTU21D;64298;46.050;38.164;2023-01-26T05:43:52;-2.06;74.97
75685;HTU21D;64298;46.050;38.164;2023-01-26T05:46:38;-2.03;74.96
75685;HTU21D;64298;46.050;38.164;2023-01-26T05:49:23;-2.02;74.92
75685;HTU21D;64298;46.050;38.164;2023-01-26T05:51:50;-2.01;74.89
75685;HTU21D;64298;46.050;38.164;2023-01-26T05:54:16;-1.97;74.90
75685;HTU21D;64298;46.050;38.164;2023-01-26T05:56:42;-1.91;74.83
75685;HTU21D;64298;46.050;38.164;2023-01-26T05:59:08;-1.91;74.67
75685;HTU21D;64298;46.050;38.164;2023-01-26T06:01:34;-1.89;74.72
75685;HTU21D;64298;46.050;38.164;2023-01-26T06:04:04;-1.86;74.64
75685;HTU21D;64298;46.050;38.164;2023-01-26T06:06:36;-1.85;74.57
75685;HTU21D;64298;46.050;38.164;2023-01-26T06:09:21;-1.78;74.57
75685;HTU21D;64298;46.050;38.164;2023-01-26T06:12:11;-1.73;74.55
75685;HTU21D;64298;46.050;38.164;2023-01-26T06:14:46;-1.67;74.51
75685;HTU21D;64298;46.050;38.164;2023-01-26T06:17:13;-1.62;74.43
75685;HTU21D;64298;46.050;38.164;2023-01-26T06:19:40;-1.61;74.35
75685;HTU21D;64298;46.050;38.164;2023-01-26T06:22:07;-1.56;74.33
75685;HTU21D;64298;46.050;38.164;2023-01-26T06:24:35;-1.53;74.25
75685;HTU21D;64298;46.050;38.164;2023-01-26T06:27:05;-1.49;74.24
75685;HTU21D;64298;46.050;38.164;2023-01-26T06:29:32;-1.43;74.26
75685;HTU21D;64298;46.050;38.164;2023-01-26T06:31:59;-1.36;74.18
75685;HTU21D;64298;46.050;38.164;2023-01-26T06:34:26;-1.31;74.15
75685;HTU21D;64298;46.050;38.164;2023-01-26T06:36:52;-1.27;74.12
75685;HTU21D;64298;46.050;38.164;2023-01-26T06:39:25;-1.21;74.05
75685;HTU21D;64298;46.050;38.164;2023-01-26T06:41:52;-1.18;73.99
75685;HTU21D;64298;46.050;38.164;2023-01-26T06:44:18;-1.14;73.99
75685;HTU21D;64298;46.050;38.164;2023-01-26T06:46:44;-1.04;73.98
75685;HTU21D;64298;46.050;38.164;2023-01-26T06:49:10;-0.98;73.88
75685;HTU21D;64298;46.050;38.164;2023-01-26T06:54:12;-0.86;73.74
75685;HTU21D;64298;46.050;38.164;2023-01-26T06:56:57;-0.77;73.65
75685;HTU21D;64298;46.050;38.164;2023-01-26T06:59:41;-0.69;73.57
75685;HTU21D;64298;46.050;38.164;2023-01-26T07:02:31;-0.62;73.45
75685;HTU21D;64298;46.050;38.164;2023-01-26T07:04:57;-0.57;73.43
75685;HTU21D;64298;46.050;38.164;2023-01-26T07:07:23;-0.50;73.40
75685;HTU21D;64298;46.050;38.164;2023-01-26T07:09:49;-0.38;73.36
75685;HTU21D;64298;46.050;38.164;2023-01-26T07:12:15;-0.25;73.16
75685;HTU21D;64298;46.050;38.164;2023-01-26T07:14:41;-0.12;72.99
75685;HTU21D;64298;46.050;38.164;2023-01-26T07:17:07;-0.03;72.79
75685;HTU21D;64298;46.050;38.164;2023-01-26T07:19:33;0.06;72.70
75685;HTU21D;64298;46.050;38.164;2023-01-26T07:22:00;0.13;72.51
75685;HTU21D;64298;46.050;38.164;2023-01-26T07:24:27;0.21;72.46
75685;HTU21D;64298;46.050;38.164;2023-01-26T07:26:53;0.31;72.39
75685;HTU21D;64298;46.050;38.164;2023-01-26T07:29:19;0.43;72.26
75685;HTU21D;64298;46.050;38.164;2023-01-26T07:31:45;0.53;72.16
75685;HTU21D;64298;46.050;38.164;2023-01-26T07:34:12;0.65;71.97
75685;HTU21D;64298;46.050;38.164;2023-01-26T07:36:38;0.76;71.76
75685;HTU21D;64298;46.050;38.164;2023-01-26T07:39:04;0.88;71.58
75685;HTU21D;64298;46.050;38.164;2023-01-26T07:41:31;0.99;71.45
75685;HTU21D;64298;46.050;38.164;2023-01-26T07:43:57;1.08;71.33
75685;HTU21D;64298;46.050;38.164;2023-01-26T07:46:23;1.21;71.31
75685;HTU21D;64298;46.050;38.164;2023-01-26T07:48:49;1.28;70.92
75685;HTU21D;64298;46.050;38.164;2023-01-26T07:51:15;1.38;71.01
75685;HTU21D;64298;46.050;38.164;2023-01-26T07:53:41;1.51;70.93
75685;HTU21D;64298;46.050;38.164;2023-01-26T07:56:10;1.66;70.67
75685;HTU21D;64298;46.050;38.164;2023-01-26T07:58:37;1.71;70.29
75685;HTU21D;64298;46.050;38.164;2023-01-26T08:03:33;1.82;70.20
75685;HTU21D;64298;46.050;38.164;2023-01-26T08:05:59;1.92;70.23
75685;HTU21D;64298;46.050;38.164;2023-01-26T08:08:25;2.05;70.22
75685;HTU21D;64298;46.050;38.164;2023-01-26T08:10:55;2.21;70.02
75685;HTU21D;64298;46.050;38.164;2023-01-26T08:13:21;2.35;69.78
75685;HTU21D;64298;46.050;38.164;2023-01-26T08:15:47;2.45;69.66
75685;HTU21D;64298;46.050;38.164;2023-01-26T08:18:13;2.56;69.29
75685;HTU21D;64298;46.050;38.164;2023-01-26T08:20:39;2.67;69.32
75685;HTU21D;64298;46.050;38.164;2023-01-26T08:23:05;2.79;69.20
75685;HTU21D;64298;46.050;38.164;2023-01-26T08:25:31;2.88;69.12
75685;HTU21D;64298;46.050;38.164;2023-01-26T08:27:58;3.00;68.68
75685;HTU21D;64298;46.050;38.164;2023-01-26T08:30:24;3.09;68.81
75685;HTU21D;64298;46.050;38.164;2023-01-26T08:33:08;3.24;68.57
75685;HTU21D;64298;46.050;38.164;2023-01-26T08:35:35;3.32;68.50
75685;HTU21D;64298;46.050;38.164;2023-01-26T08:38:01;3.40;68.42
75685;HTU21D;64298;46.050;38.164;2023-01-26T08:40:50;3.53;68.42
75685;HTU21D;64298;46.050;38.164;2023-01-26T08:43:16;3.61;68.19
75685;HTU21D;64298;46.050;38.164;2023-01-26T08:45:42;3.71;67.94
75685;HTU21D;64298;46.050;38.164;2023-01-26T08:48:11;3.80;67.56
75685;HTU21D;64298;46.050;38.164;2023-01-26T08:50:37;3.84;67.67
75685;HTU21D;64298;46.050;38.164;2023-01-26T08:53:03;3.88;67.64
75685;HTU21D;64298;46.050;38.164;2023-01-26T08:55:29;3.94;67.40
75685;HTU21D;64298;46.050;38.164;2023-01-26T08:57:57;4.04;67.39
75685;HTU21D;64298;46.050;38.164;2023-01-26T09:00:23;4.13;67.10
75685;HTU21D;64298;46.050;38.164;2023-01-26T09:02:52;4.20;67.26
75685;HTU21D;64298;46.050;38.164;2023-01-26T09:05:41;4.28;66.91
75685;HTU21D;64298;46.050;38.164;2023-01-26T09:08:08;4.34;67.02
75685;HTU21D;64298;46.050;38.164;2023-01-26T09:10:36;4.47;66.80
75685;HTU21D;64298;46.050;38.164;2023-01-26T09:13:03;4.59;66.52
75685;HTU21D;64298;46.050;38.164;2023-01-26T09:15:29;4.63;66.17
75685;HTU21D;64298;46.050;38.164;2023-01-26T09:17:55;4.71;66.42
75685;HTU21D;64298;46.050;38.164;2023-01-26T09:20:21;4.78;66.32
75685;HTU21D;64298;46.050;38.164;2023-01-26T09:22:47;4.87;65.92
75685;HTU21D;64298;46.050;38.164;2023-01-26T09:25:13;4.93;65.69
75685;HTU21D;64298;46.050;38.164;2023-01-26T09:27:40;4.96;65.53
75685;HTU21D;64298;46.050;38.164;2023-01-26T09:30:07;5.02;65.45
75685;HTU21D;64298;46.050;38.164;2023-01-26T09:32:33;5.12;65.45
75685;HTU21D;64298;46.050;38.164;2023-01-26T09:34:59;5.21;65.24
75685;HTU21D;64298;46.050;38.164;2023-01-26T09:37:25;5.23;65.08
75685;HTU21D;64298;46.050;38.164;2023-01-26T09:39:51;5.30;65.10
75685;HTU21D;64298;46.050;38.164;2023-01-26T09:45:14;5.25;64.15
75685;HTU21D;64298;46.050;38.164;2023-01-26T09:51:08;4.52;65.78
75685;HTU21D;64298;46.050;38.164;2023-01-26T09:53:44;4.21;66.35
75685;HTU21D;64298;46.050;38.164;2023-01-26T09:56:18;3.99;66.74
75685;HTU21D;64298;46.050;38.164;2023-01-26T09:59:33;3.79;67.43
75685;HTU21D;64298;46.050;38.164;2023-01-26T10:04:50;3.77;67.69
75685;HTU21D;64298;46.050;38.164;2023-01-26T10:07:16;3.70;67.77
75685;HTU21D;64298;46.050;38.164;2023-01-26T10:09:50;3.60;68.04
75685;HTU21D;64298;46.050;38.164;2023-01-26T10:12:27;3.61;68.21
75685;HTU21D;64298;46.050;38.164;2023-01-26T10:15:31;3.64;68.30
75685;HTU21D;64298;46.050;38.164;2023-01-26T10:18:03;3.67;68.15
75685;HTU21D;64298;46.050;38.164;2023-01-26T10:20:52;3.63;68.09
75685;HTU21D;64298;46.050;38.164;2023-01-26T10:23:26;3.68;68.04
75685;HTU21D;64298;46.050;38.164;2023-01-26T10:25:57;3.68;67.85
75685;HTU21D;64298;46.050;38.164;2023-01-26T10:28:46;3.69;67.70
75685;HTU21D;64298;46.050;38.164;2023-01-26T10:31:16;3.72;67.67
75685;HTU21D;64298;46.050;38.164;2023-01-26T10:34:00;3.69;67.96
75685;HTU21D;64298;46.050;38.164;2023-01-26T10:36:46;3.77;67.87
75685;HTU21D;64298;46.050;38.164;2023-01-26T10:39:15;3.84;67.86
75685;HTU21D;64298;46.050;38.164;2023-01-26T10:41:56;3.87;67.69
75685;HTU21D;64298;46.050;38.164;2023-01-26T10:44:31;3.93;67.58
75685;HTU21D;64298;46.050;38.164;2023-01-26T10:47:24;3.92;67.52
75685;HTU21D;64298;46.050;38.164;2023-01-26T10:49:51;3.92;67.55
75685;HTU21D;64298;46.050;38.164;2023-01-26T10:54:45;4.02;67.03
75685;HTU21D;64298;46.050;38.164;2023-01-26T10:57:28;4.01;67.29
75685;HTU21D;64298;46.050;38.164;2023-01-26T11:00:06;4.09;67.13
75685;HTU21D;64298;46.050;38.164;2023-01-26T11:02:49;4.13;67.12
75685;HTU21D;64298;46.050;38.164;2023-01-26T11:05:20;4.22;67.07
75685;HTU21D;64298;46.050;38.164;2023-01-26T11:07:49;4.36;66.65
75685;HTU21D;64298;46.050;38.164;2023-01-26T11:10:19;4.41;66.40
75685;HTU21D;64298;46.050;38.164;2023-01-26T11:13:16;4.49;66.30
75685;HTU21D;64298;46.050;38.164;2023-01-26T11:15:46;4.58;66.14
75685;HTU21D;64298;46.050;38.164;2023-01-26T11:21:35;4.66;65.53
75685;HTU21D;64298;46.050;38.164;2023-01-26T11:26:51;4.57;66.08
75685;HTU21D;64298;46.050;38.164;2023-01-26T11:35:31;4.81;66.70
75685;HTU21D;64298;46.050;38.164;2023-01-26T11:41:18;4.87;66.61
75685;HTU21D;64298;46.050;38.164;2023-01-26T11:49:56;4.53;66.80
75685;HTU21D;64298;46.050;38.164;2023-01-26T12:00:53;3.91;68.31
75685;HTU21D;64298;46.050;38.164;2023-01-26T12:06:07;3.79;68.85
75685;HTU21D;64298;46.050;38.164;2023-01-26T12:08:52;3.72;69.26
75685;HTU21D;64298;46.050;38.164;2023-01-26T12:11:24;3.62;69.81
75685;HTU21D;64298;46.050;38.164;2023-01-26T12:22:43;3.33;72.12
75685;HTU21D;64298;46.050;38.164;2023-01-26T12:27:48;3.30;72.55
75685;HTU21D;64298;46.050;38.164;2023-01-26T12:33:01;3.33;72.77
75685;HTU21D;64298;46.050;38.164;2023-01-26T12:35:34;3.31;72.80
75685;HTU21D;64298;46.050;38.164;2023-01-26T12:38:02;3.31;73.29
75685;HTU21D;64298;46.050;38.164;2023-01-26T12:40:42;3.24;73.25
75685;HTU21D;64298;46.050;38.164;2023-01-26T12:43:51;3.17;73.67
75685;HTU21D;64298;46.050;38.164;2023-01-26T12:46:21;3.16;73.86
75685;HTU21D;64298;46.050;38.164;2023-01-26T12:49:01;3.09;74.18
75685;HTU21D;64298;46.050;38.164;2023-01-26T12:51:31;3.05;74.40
75685;HTU21D;64298;46.050;38.164;2023-01-26T12:54:33;3.08;74.42
75685;HTU21D;64298;46.050;38.164;2023-01-26T12:57:04;3.09;74.41
75685;HTU21D;64298;46.050;38.164;2023-01-26T12:59:33;3.10;74.55
75685;HTU21D;64298;46.050;38.164;2023-01-26T13:04:43;3.13;74.47
75685;HTU21D;64298;46.050;38.164;2023-01-26T13:07:35;3.11;74.40
75685;HTU21D;64298;46.050;38.164;2023-01-26T13:13:25;3.13;74.51
75685;HTU21D;64298;46.050;38.164;2023-01-26T13:15:46;3.10;74.57
75685;HTU21D;64298;46.050;38.164;2023-01-26T13:18:16;3.01;74.57
75685;HTU21D;64298;46.050;38.164;2023-01-26T13:20:43;2.97;74.86
75685;HTU21D;64298;46.050;38.164;2023-01-26T13:23:39;2.90;75.12
75685;HTU21D;64298;46.050;38.164;2023-01-26T13:26:15;2.82;75.22
75685;HTU21D;64298;46.050;38.164;2023-01-26T13:28:43;2.75;75.42
75685;HTU21D;64298;46.050;38.164;2023-01-26T13:31:10;2.72;75.48
75685;HTU21D;64298;46.050;38.164;2023-01-26T13:33:37;2.70;75.58
75685;HTU21D;64298;46.050;38.164;2023-01-26T13:36:13;2.68;75.52
75685;HTU21D;64298;46.050;38.164;2023-01-26T13:38:59;2.70;75.49
75685;HTU21D;64298;46.050;38.164;2023-01-26T13:41:27;2.71;75.83
75685;HTU21D;64298;46.050;38.164;2023-01-26T13:44:07;2.69;75.76
75685;HTU21D;64298;46.050;38.164;2023-01-26T13:46:57;2.67;75.70
75685;HTU21D;64298;46.050;38.164;2023-01-26T13:49:35;2.62;75.89
75685;HTU21D;64298;46.050;38.164;2023-01-26T13:52:03;2.59;75.80
75685;HTU21D;64298;46.050;38.164;2023-01-26T13:54:40;2.57;75.86
75685;HTU21D;64298;46.050;38.164;2023-01-26T13:57:10;2.58;75.87
75685;HTU21D;64298;46.050;38.164;2023-01-26T13:59:52;2.53;75.91
75685;HTU21D;64298;46.050;38.164;2023-01-26T14:02:29;2.53;75.86
75685;HTU21D;64298;46.050;38.164;2023-01-26T14:04:57;2.52;75.87
75685;HTU21D;64298;46.050;38.164;2023-01-26T14:07:27;2.45;76.28
75685;HTU21D;64298;46.050;38.164;2023-01-26T14:09:54;2.41;76.41
75685;HTU21D;64298;46.050;38.164;2023-01-26T14:12:26;2.36;76.56
75685;HTU21D;64298;46.050;38.164;2023-01-26T14:14:58;2.29;76.94
75685;HTU21D;64298;46.050;38.164;2023-01-26T14:17:45;2.28;76.81
75685;HTU21D;64298;46.050;38.164;2023-01-26T14:23:01;2.14;77.06
75685;HTU21D;64298;46.050;38.164;2023-01-26T14:25:28;2.01;77.23
75685;HTU21D;64298;46.050;38.164;2023-01-26T14:27:54;1.93;77.38
75685;HTU21D;64298;46.050;38.164;2023-01-26T14:30:27;1.92;77.48
75685;HTU21D;64298;46.050;38.164;2023-01-26T14:33:13;1.93;77.47
75685;HTU21D;64298;46.050;38.164;2023-01-26T14:35:41;1.85;77.35
75685;HTU21D;64298;46.050;38.164;2023-01-26T14:40:50;1.85;77.27
75685;HTU21D;64298;46.050;38.164;2023-01-26T14:43:16;1.88;77.37
75685;HTU21D;64298;46.050;38.164;2023-01-26T14:45:52;1.93;77.33
75685;HTU21D;64298;46.050;38.164;2023-01-26T14:48:22;1.93;77.72
75685;HTU21D;64298;46.050;38.164;2023-01-26T14:50:51;1.91;77.52
75685;HTU21D;64298;46.050;38.164;2023-01-26T14:53:20;1.90;77.53
75685;HTU21D;64298;46.050;38.164;2023-01-26T14:55:47;1.86;77.62
75685;HTU21D;64298;46.050;38.164;2023-01-26T14:58:26;1.84;77.56
75685;HTU21D;64298;46.050;38.164;2023-01-26T15:01:19;1.82;77.44
75685;HTU21D;64298;46.050;38.164;2023-01-26T15:03:47;1.83;77.51
75685;HTU21D;64298;46.050;38.164;2023-01-26T15:06:19;1.84;77.73
75685;HTU21D;64298;46.050;38.164;2023-01-26T15:11:31;1.75;78.10
75685;HTU21D;64298;46.050;38.164;2023-01-26T15:14:37;1.68;78.47
75685;HTU21D;64298;46.050;38.164;2023-01-26T15:17:59;1.65;78.69
75685;HTU21D;64298;46.050;38.164;2023-01-26T15:20:55;1.61;78.49
75685;HTU21D;64298;46.050;38.164;2023-01-26T15:23:27;1.57;78.43
75685;HTU21D;64298;46.050;38.164;2023-01-26T15:25:54;1.56;78.63
75685;HTU21D;64298;46.050;38.164;2023-01-26T15:28:24;1.54;78.88
75685;HTU21D;64298;46.050;38.164;2023-01-26T15:30:53;1.51;78.94
75685;HTU21D;64298;46.050;38.164;2023-01-26T15:33:43;1.50;78.97
75685;HTU21D;64298;46.050;38.164;2023-01-26T15:39:09;1.50;78.95
75685;HTU21D;64298;46.050;38.164;2023-01-26T15:41:38;1.49;78.86
75685;HTU21D;64298;46.050;38.164;2023-01-26T15:44:04;1.43;78.92
75685;HTU21D;64298;46.050;38.164;2023-01-26T15:46:34;1.42;79.14
75685;HTU21D;64298;46.050;38.164;2023-01-26T15:49:00;1.43;79.40
75685;HTU21D;64298;46.050;38.164;2023-01-26T15:51:26;1.48;79.33
75685;HTU21D;64298;46.050;38.164;2023-01-26T15:53:51;1.49;79.32
75685;HTU21D;64298;46.050;38.164;2023-01-26T15:56:17;1.51;79.37
75685;HTU21D;64298;46.050;38.164;2023-01-26T15:58:43;1.51;79.27
75685;HTU21D;64298;46.050;38.164;2023-01-26T16:01:29;1.49;79.26
75685;HTU21D;64298;46.050;38.164;2023-01-26T16:03:55;1.46;79.28
75685;HTU21D;64298;46.050;38.164;2023-01-26T16:06:24;1.45;79.30
75685;HTU21D;64298;46.050;38.164;2023-01-26T16:08:51;1.46;79.48
75685;HTU21D;64298;46.050;38.164;2023-01-26T16:11:19;1.46;79.37
75685;HTU21D;64298;46.050;38.164;2023-01-26T16:13:45;1.45;79.49
75685;HTU21D;64298;46.050;38.164;2023-01-26T16:16:12;1.41;79.54
75685;HTU21D;64298;46.050;38.164;2023-01-26T16:18:39;1.40;79.60
75685;HTU21D;64298;46.050;38.164;2023-01-26T16:21:17;1.37;79.53
75685;HTU21D;64298;46.050;38.164;2023-01-26T16:23:43;1.33;79.62
75685;HTU21D;64298;46.050;38.164;2023-01-26T16:26:11;1.32;79.71
75685;HTU21D;64298;46.050;38.164;2023-01-26T16:28:38;1.29;79.67
75685;HTU21D;64298;46.050;38.164;2023-01-26T16:31:15;1.26;79.69
75685;HTU21D;64298;46.050;38.164;2023-01-26T16:33:42;1.26;79.71
75685;HTU21D;64298;46.050;38.164;2023-01-26T16:36:10;1.26;79.56
75685;HTU21D;64298;46.050;38.164;2023-01-26T16:38:40;1.21;79.56
75685;HTU21D;64298;46.050;38.164;2023-01-26T16:41:21;1.14;79.74
75685;HTU21D;64298;46.050;38.164;2023-01-26T16:43:48;1.08;79.97
75685;HTU21D;64298;46.050;38.164;2023-01-26T16:46:14;1.02;80.16
75685;HTU21D;64298;46.050;38.164;2023-01-26T16:48:40;0.95;80.41
75685;HTU21D;64298;46.050;38.164;2023-01-26T16:51:24;0.88;80.69
75685;HTU21D;64298;46.050;38.164;2023-01-26T16:53:51;0.84;80.83
75685;HTU21D;64298;46.050;38.164;2023-01-26T16:56:18;0.83;81.04
75685;HTU21D;64298;46.050;38.164;2023-01-26T16:58:44;0.81;81.44
75685;HTU21D;64298;46.050;38.164;2023-01-26T17:01:20;0.84;81.38
75685;HTU21D;64298;46.050;38.164;2023-01-26T17:03:47;0.87;81.24
75685;HTU21D;64298;46.050;38.164;2023-01-26T17:06:15;0.91;81.02